Time;durP1;ratioP1;P1;durP2;ratioP2;P2;SDS_P1;SDS_P2;PMS_P1;PMS_P2;Temp;Humidity;BMP_temperature;BMP_pressure;BME280_temperature;BME280_humidity;BME280_pressure;Samples;Min_cycle;Max_cycle;Signal;HPM_P1;HPM_P2
2021/07/15 00:00:51;;;;;;;;;;;15.10;1.00;;;;;;5051906;28;19923;-60
2021/07/15 00:03:18;;;;;;;;;;;15.10;1.00;;;;;;5050738;28;20123;-60
2021/07/15 00:05:44;;;;;;;;;;;15.10;1.00;;;;;;5044144;28;19913;-62
2021/07/15 00:08:10;;;;;;;;;;;15.20;1.00;;;;;;5049960;28;20322;-62
2021/07/15 00:10:40;;;;;;;;;;;15.10;1.00;;;;;;5051070;28;20319;-62
2021/07/15 00:13:07;;;;;;;;;;;15.10;1.00;;;;;;5050823;28;19928;-62
2021/07/15 00:15:34;;;;;;;;;;;15.20;1.00;;;;;;5050024;28;20273;-60
2021/07/15 00:17:59;;;;;;;;;;;15.10;1.00;;;;;;5051025;28;19943;-60
2021/07/15 00:20:25;;;;;;;;;;;15.20;1.00;;;;;;5051392;28;19988;-60
2021/07/15 00:22:50;;;;;;;;;;;15.10;1.00;;;;;;5051046;28;20261;-60
2021/07/15 00:25:17;;;;;;;;;;;15.10;1.00;;;;;;5051197;28;19920;-60
2021/07/15 00:27:43;;;;;;;;;;;15.10;1.00;;;;;;5049128;28;19909;-60
2021/07/15 00:30:11;;;;;;;;;;;15.20;1.00;;;;;;5051078;28;19916;-60
2021/07/15 00:32:37;;;;;;;;;;;15.20;1.00;;;;;;5050960;28;20007;-61
2021/07/15 00:35:03;;;;;;;;;;;15.10;1.00;;;;;;5051287;28;20007;-60
2021/07/15 00:37:29;;;;;;;;;;;15.20;1.00;;;;;;5050172;28;19970;-60
2021/07/15 00:39:54;;;;;;;;;;;15.10;1.00;;;;;;5051281;28;19909;-60
2021/07/15 00:42:20;;;;;;;;;;;15.10;1.00;;;;;;5050173;28;19913;-62
2021/07/15 00:44:45;;;;;;;;;;;15.20;1.00;;;;;;5050931;28;19935;-62
2021/07/15 00:47:11;;;;;;;;;;;15.20;1.00;;;;;;5050548;28;19943;-61
2021/07/15 00:49:36;;;;;;;;;;;15.20;1.00;;;;;;5049962;28;19912;-61
2021/07/15 00:52:02;;;;;;;;;;;15.10;1.00;;;;;;5050610;28;20003;-61
2021/07/15 00:54:28;;;;;;;;;;;15.20;1.00;;;;;;5050741;28;20558;-61
2021/07/15 00:56:53;;;;;;;;;;;15.10;1.00;;;;;;5049170;28;19909;-61
2021/07/15 00:59:21;;;;;;;;;;;15.10;1.00;;;;;;5049361;28;20359;-60
2021/07/15 01:01:49;;;;;;;;;;;15.10;1.00;;;;;;5050475;28;19950;-60
2021/07/15 01:04:15;;;;;;;;;;;15.10;1.00;;;;;;5049628;28;20006;-61
2021/07/15 01:06:40;;;;;;;;;;;15.10;1.00;;;;;;5050353;28;20285;-61
2021/07/15 01:09:06;;;;;;;;;;;15.00;1.00;;;;;;5049400;28;19917;-61
2021/07/15 01:11:55;;;;;;;;;;;15.00;1.00;;;;;;5048977;28;19909;-61
2021/07/15 01:14:25;;;;;;;;;;;15.00;1.00;;;;;;5030418;28;20300;-61
2021/07/15 01:16:58;;;;;;;;;;;15.00;1.00;;;;;;5050157;28;19916;-61
2021/07/15 01:19:24;;;;;;;;;;;14.90;1.00;;;;;;5048948;28;19996;-61
2021/07/15 01:21:55;;;;;;;;;;;14.90;1.00;;;;;;5050318;28;20000;-61
2021/07/15 01:24:39;;;;;;;;;;;14.90;1.00;;;;;;5050647;28;20346;-60
2021/07/15 01:27:12;;;;;;;;;;;14.90;1.00;;;;;;5048979;28;19989;-59
2021/07/15 01:29:56;;;;;;;;;;;14.90;1.00;;;;;;5049703;28;19999;-61
2021/07/15 01:32:23;;;;;;;;;;;14.90;1.00;;;;;;5050027;28;19999;-60
2021/07/15 01:34:50;;;;;;;;;;;14.90;1.00;;;;;;5048397;28;19959;-60
2021/07/15 01:37:16;;;;;;;;;;;15.00;1.00;;;;;;5049112;28;20339;-59
2021/07/15 01:39:42;;;;;;;;;;;15.00;1.00;;;;;;5049419;28;19916;-61
2021/07/15 01:42:10;;;;;;;;;;;15.00;1.00;;;;;;5039668;28;20405;-60
2021/07/15 01:44:36;;;;;;;;;;;15.10;1.00;;;;;;5049746;28;19913;-60
2021/07/15 01:47:03;;;;;;;;;;;15.20;1.00;;;;;;5049722;28;19916;-60
2021/07/15 01:49:28;;;;;;;;;;;15.10;1.00;;;;;;5048697;28;19989;-60
2021/07/15 01:51:55;;;;;;;;;;;15.20;1.00;;;;;;5049716;28;20405;-60
2021/07/15 01:54:21;;;;;;;;;;;15.20;1.00;;;;;;5049619;28;19909;-59
2021/07/15 01:56:47;;;;;;;;;;;15.20;1.00;;;;;;5048839;28;20196;-60
2021/07/15 01:59:13;;;;;;;;;;;15.20;1.00;;;;;;5048559;28;19931;-58
2021/07/15 02:01:39;;;;;;;;;;;15.20;1.00;;;;;;5049473;28;20358;-60
2021/07/15 02:04:06;;;;;;;;;;;15.30;1.00;;;;;;5048578;28;19916;-63
2021/07/15 02:06:33;;;;;;;;;;;15.20;1.00;;;;;;5112375;22;19924;-60
2021/07/15 02:09:03;;;;;;;;;;;15.30;1.00;;;;;;5088264;28;19981;-61
2021/07/15 02:11:33;;;;;;;;;;;15.20;1.00;;;;;;5087255;28;20444;-61
2021/07/15 02:14:10;;;;;;;;;;;15.30;1.00;;;;;;5089362;28;20341;-61
2021/07/15 02:16:37;;;;;;;;;;;15.30;1.00;;;;;;5089143;28;19961;-59
2021/07/15 02:19:04;;;;;;;;;;;15.30;1.00;;;;;;5088258;28;19926;-60
2021/07/15 02:21:31;;;;;;;;;;;15.30;1.00;;;;;;5088930;28;20014;-59
2021/07/15 02:23:57;;;;;;;;;;;15.30;1.00;;;;;;5089599;28;19908;-59
2021/07/15 02:26:24;;;;;;;;;;;15.40;1.00;;;;;;5067553;28;19951;-61
2021/07/15 02:28:50;;;;;;;;;;;15.40;1.00;;;;;;5068571;28;19908;-60
2021/07/15 02:31:16;;;;;;;;;;;15.40;1.00;;;;;;5068940;28;19913;-61
2021/07/15 02:33:45;;;;;;;;;;;15.30;1.00;;;;;;5068698;28;19946;-61
2021/07/15 02:36:11;;;;;;;;;;;15.40;1.00;;;;;;5068875;28;19912;-60
2021/07/15 02:38:37;;;;;;;;;;;15.40;1.00;;;;;;5068184;28;19958;-60
2021/07/15 02:41:03;;;;;;;;;;;15.40;1.00;;;;;;5068417;28;19912;-60
2021/07/15 02:43:28;;;;;;;;;;;15.40;1.00;;;;;;5068231;28;19912;-62
2021/07/15 02:45:54;;;;;;;;;;;15.30;1.00;;;;;;5069031;28;19912;-63
2021/07/15 02:48:20;;;;;;;;;;;15.30;1.00;;;;;;5067717;28;20359;-59
2021/07/15 02:50:46;;;;;;;;;;;15.30;1.00;;;;;;5069072;28;19913;-61
2021/07/15 02:53:12;;;;;;;;;;;15.30;1.00;;;;;;5069251;28;20328;-60
2021/07/15 02:55:41;;;;;;;;;;;15.30;1.00;;;;;;5071824;28;19959;-62
2021/07/15 02:58:26;;;;;;;;;;;15.20;1.00;;;;;;5087532;28;20045;-59
2021/07/15 03:00:59;;;;;;;;;;;15.20;1.00;;;;;;5089026;28;20364;-60
2021/07/15 03:03:43;;;;;;;;;;;15.10;1.00;;;;;;5088037;28;20359;-59
2021/07/15 03:06:10;;;;;;;;;;;15.10;1.00;;;;;;5080712;28;19939;-57
2021/07/15 03:08:39;;;;;;;;;;;15.10;1.00;;;;;;5088225;28;20232;-57
2021/07/15 03:11:05;;;;;;;;;;;15.20;1.00;;;;;;5088257;28;19962;-61
2021/07/15 03:13:31;;;;;;;;;;;15.10;1.00;;;;;;5088379;28;19908;-58
2021/07/15 03:15:57;;;;;;;;;;;15.20;1.00;;;;;;5089187;28;19955;-59
2021/07/15 03:18:24;;;;;;;;;;;15.10;1.00;;;;;;5087617;28;19982;-61
2021/07/15 03:20:50;;;;;;;;;;;15.10;1.00;;;;;;5088358;28;19908;-59
2021/07/15 03:23:17;;;;;;;;;;;15.10;1.00;;;;;;5090807;28;19911;-60
2021/07/15 03:25:46;;;;;;;;;;;15.00;1.00;;;;;;5091916;28;19962;-61
2021/07/15 03:28:14;;;;;;;;;;;15.00;1.00;;;;;;5091176;28;20005;-59
2021/07/15 03:30:39;;;;;;;;;;;15.00;1.00;;;;;;5092404;28;19923;-63
2021/07/15 03:33:05;;;;;;;;;;;14.90;1.00;;;;;;5091659;28;19908;-63
2021/07/15 03:35:31;;;;;;;;;;;14.90;1.00;;;;;;5073848;28;19920;-62
2021/07/15 03:37:57;;;;;;;;;;;14.90;1.00;;;;;;5091510;28;19961;-63
2021/07/15 03:40:24;;;;;;;;;;;14.90;1.00;;;;;;5092276;28;19969;-63
2021/07/15 03:42:50;;;;;;;;;;;14.90;1.00;;;;;;5090783;28;19985;-60
2021/07/15 03:45:17;;;;;;;;;;;15.00;1.00;;;;;;5090934;28;19954;-61
2021/07/15 03:47:46;;;;;;;;;;;15.00;1.00;;;;;;5072733;28;19916;-62
2021/07/15 03:50:12;;;;;;;;;;;15.00;1.00;;;;;;5091570;28;19913;-60
2021/07/15 03:52:38;;;;;;;;;;;15.00;1.00;;;;;;5091951;28;19912;-63
2021/07/15 03:55:05;;;;;;;;;;;15.10;1.00;;;;;;5091440;28;19918;-63
2021/07/15 03:57:31;;;;;;;;;;;15.10;1.00;;;;;;5089955;28;20011;-58
2021/07/15 03:59:57;;;;;;;;;;;15.10;1.00;;;;;;5091735;28;19912;-62
2021/07/15 04:02:24;;;;;;;;;;;15.20;1.00;;;;;;5092050;28;19942;-62
2021/07/15 04:04:51;;;;;;;;;;;15.20;1.00;;;;;;5090823;28;19908;-61
2021/07/15 04:07:17;;;;;;;;;;;15.30;1.00;;;;;;5082713;28;19916;-61
2021/07/15 04:09:44;;;;;;;;;;;15.20;1.00;;;;;;5091364;28;19912;-60
2021/07/15 04:12:11;;;;;;;;;;;15.20;1.00;;;;;;5090438;28;19920;-61
2021/07/15 04:14:39;;;;;;;;;;;15.30;1.00;;;;;;5091950;28;19908;-60
2021/07/15 04:17:09;;;;;;;;;;;15.40;1.00;;;;;;5091491;28;19919;-61
2021/07/15 04:19:35;;;;;;;;;;;15.40;1.00;;;;;;5090649;28;19908;-61
2021/07/15 04:22:05;;;;;;;;;;;15.40;1.00;;;;;;5091328;28;19911;-61
2021/07/15 04:24:31;;;;;;;;;;;15.40;1.00;;;;;;5090890;28;19908;-61
2021/07/15 04:26:58;;;;;;;;;;;15.50;1.00;;;;;;5089802;28;19908;-59
2021/07/15 04:29:23;;;;;;;;;;;15.50;1.00;;;;;;5090940;28;20436;-61
2021/07/15 04:31:49;;;;;;;;;;;15.40;1.00;;;;;;5091005;28;20057;-61
2021/07/15 04:34:15;;;;;;;;;;;15.50;1.00;;;;;;5090288;28;19950;-61
2021/07/15 04:36:41;;;;;;;;;;;15.50;1.00;;;;;;5091174;28;20368;-60
2021/07/15 04:39:07;;;;;;;;;;;15.60;1.00;;;;;;5090027;28;19912;-61
2021/07/15 04:41:32;;;;;;;;;;;15.60;1.00;;;;;;5084434;28;19912;-61
2021/07/15 04:43:59;;;;;;;;;;;15.60;1.00;;;;;;5090152;28;19954;-62
2021/07/15 04:46:25;;;;;;;;;;;15.60;1.00;;;;;;5088885;28;19919;-61
2021/07/15 04:48:51;;;;;;;;;;;15.60;1.00;;;;;;5089701;28;20002;-59
2021/07/15 04:51:17;;;;;;;;;;;15.70;1.00;;;;;;5090579;28;20342;-61
2021/07/15 04:53:45;;;;;;;;;;;15.80;1.00;;;;;;5090272;28;19952;-59
2021/07/15 04:56:11;;;;;;;;;;;15.70;1.00;;;;;;5089926;28;19957;-56
2021/07/15 04:58:36;;;;;;;;;;;15.70;1.00;;;;;;5090121;28;19985;-58
2021/07/15 05:01:03;;;;;;;;;;;15.70;1.00;;;;;;5090903;28;20371;-59
2021/07/15 05:03:29;;;;;;;;;;;15.70;1.00;;;;;;5090407;28;19912;-61
2021/07/15 05:05:55;;;;;;;;;;;15.70;1.00;;;;;;5090307;28;19923;-60
2021/07/15 05:08:20;;;;;;;;;;;15.60;1.00;;;;;;5089126;28;19909;-62
2021/07/15 05:10:46;;;;;;;;;;;15.60;1.00;;;;;;5070217;28;20018;-61
2021/07/15 05:13:12;;;;;;;;;;;15.60;1.00;;;;;;5073209;28;20003;-61
2021/07/15 05:15:37;;;;;;;;;;;15.60;1.00;;;;;;5072664;28;19998;-63
2021/07/15 05:18:03;;;;;;;;;;;15.70;1.00;;;;;;5089379;28;19935;-63
2021/07/15 05:20:28;;;;;;;;;;;15.70;1.00;;;;;;5089187;28;19929;-63
2021/07/15 05:22:54;;;;;;;;;;;15.70;1.00;;;;;;5083348;28;20257;-62
2021/07/15 05:25:19;;;;;;;;;;;15.70;1.00;;;;;;5079830;28;19953;-61
2021/07/15 05:27:45;;;;;;;;;;;15.70;1.00;;;;;;5075861;28;20649;-61
2021/07/15 05:30:11;;;;;;;;;;;15.80;1.00;;;;;;5080496;28;19923;-63
2021/07/15 05:32:36;;;;;;;;;;;15.80;1.00;;;;;;5078697;28;19908;-63
2021/07/15 05:35:02;;;;;;;;;;;16.00;1.00;;;;;;5078791;28;19912;-64
2021/07/15 05:37:27;;;;;;;;;;;16.10;1.00;;;;;;5079164;28;19912;-64
2021/07/15 05:39:53;;;;;;;;;;;16.20;1.00;;;;;;5079618;28;20510;-61
2021/07/15 05:42:19;;;;;;;;;;;16.10;1.00;;;;;;5075055;28;19958;-62
2021/07/15 05:44:48;;;;;;;;;;;16.10;1.00;;;;;;5076762;28;19924;-62
2021/07/15 05:47:13;;;;;;;;;;;16.00;1.00;;;;;;5081193;28;19997;-62
2021/07/15 05:49:39;;;;;;;;;;;16.10;1.00;;;;;;5072577;28;19920;-62
2021/07/15 05:52:05;;;;;;;;;;;15.90;1.00;;;;;;5078086;28;19908;-59
2021/07/15 05:54:31;;;;;;;;;;;15.90;1.00;;;;;;5068129;28;19908;-62
2021/07/15 05:56:57;;;;;;;;;;;15.90;1.00;;;;;;5080035;28;19915;-61
2021/07/15 05:59:22;;;;;;;;;;;16.00;1.00;;;;;;5086124;28;19934;-62
2021/07/15 06:01:48;;;;;;;;;;;16.10;1.00;;;;;;5077311;28;19916;-60
2021/07/15 06:04:13;;;;;;;;;;;16.20;1.00;;;;;;5076963;28;20281;-58
2021/07/15 06:06:39;;;;;;;;;;;16.10;1.00;;;;;;5075089;28;19920;-61
2021/07/15 06:09:04;;;;;;;;;;;16.10;1.00;;;;;;5076822;28;19924;-62
2021/07/15 06:11:30;;;;;;;;;;;16.20;1.00;;;;;;5075003;28;19991;-61
2021/07/15 06:13:55;;;;;;;;;;;16.20;1.00;;;;;;5075359;28;20006;-61
2021/07/15 06:16:21;;;;;;;;;;;16.00;1.00;;;;;;5059105;28;19918;-63
2021/07/15 06:18:47;;;;;;;;;;;15.90;1.00;;;;;;5074149;28;19951;-62
2021/07/15 06:21:13;;;;;;;;;;;16.00;1.00;;;;;;5077365;28;19923;-62
2021/07/15 06:23:38;;;;;;;;;;;16.10;1.00;;;;;;5074744;28;19913;-60
2021/07/15 06:26:05;;;;;;;;;;;16.10;1.00;;;;;;5076335;28;19909;-61
2021/07/15 06:28:31;;;;;;;;;;;16.20;1.00;;;;;;5073705;28;19908;-61
2021/07/15 06:30:56;;;;;;;;;;;16.10;1.00;;;;;;5080479;28;19920;-61
2021/07/15 06:33:22;;;;;;;;;;;16.20;1.00;;;;;;5085682;28;19915;-61
2021/07/15 06:35:50;;;;;;;;;;;16.10;1.00;;;;;;5085754;28;20002;-61
2021/07/15 06:38:16;;;;;;;;;;;16.30;1.00;;;;;;5086168;28;20002;-61
2021/07/15 06:40:46;;;;;;;;;;;16.40;1.00;;;;;;5085744;28;20050;-62
2021/07/15 06:43:11;;;;;;;;;;;16.40;1.00;;;;;;5084857;28;19912;-61
2021/07/15 06:45:37;;;;;;;;;;;16.50;1.00;;;;;;5087823;28;19908;-58
2021/07/15 06:48:03;;;;;;;;;;;16.50;1.00;;;;;;5087438;28;19947;-60
2021/07/15 06:50:28;;;;;;;;;;;16.60;1.00;;;;;;5088380;28;19923;-58
2021/07/15 06:52:54;;;;;;;;;;;16.50;1.00;;;;;;5088653;28;19961;-60
2021/07/15 06:55:19;;;;;;;;;;;16.40;1.00;;;;;;5088400;28;19947;-61
2021/07/15 06:57:45;;;;;;;;;;;16.40;1.00;;;;;;5090532;28;19915;-61
2021/07/15 07:00:12;;;;;;;;;;;16.30;1.00;;;;;;5095287;28;19915;-62
2021/07/15 07:02:38;;;;;;;;;;;16.40;1.00;;;;;;5095448;28;19908;-61
2021/07/15 07:05:05;;;;;;;;;;;16.50;1.00;;;;;;5092979;28;20387;-61
2021/07/15 07:07:30;;;;;;;;;;;16.50;1.00;;;;;;5088483;28;19916;-62
2021/07/15 07:09:56;;;;;;;;;;;16.60;1.00;;;;;;5095422;28;19919;-61
2021/07/15 07:12:21;;;;;;;;;;;16.60;1.00;;;;;;5094004;28;20280;-62
2021/07/15 07:14:47;;;;;;;;;;;16.60;1.00;;;;;;5095753;28;19908;-61
2021/07/15 07:17:12;;;;;;;;;;;16.60;1.00;;;;;;5094984;28;19919;-62
2021/07/15 07:19:38;;;;;;;;;;;16.70;1.00;;;;;;5093998;28;19919;-62
2021/07/15 07:22:03;;;;;;;;;;;16.80;1.00;;;;;;5094846;28;19908;-62
2021/07/15 07:24:29;;;;;;;;;;;16.80;1.00;;;;;;5095153;28;20001;-62
2021/07/15 07:26:54;;;;;;;;;;;16.90;1.00;;;;;;5093719;28;20046;-62
2021/07/15 07:29:20;;;;;;;;;;;16.80;1.00;;;;;;5095031;28;19977;-60
2021/07/15 07:31:45;;;;;;;;;;;16.90;1.00;;;;;;5076408;28;19908;-62
2021/07/15 07:34:11;;;;;;;;;;;16.70;1.00;;;;;;5094422;28;19946;-62
2021/07/15 07:36:36;;;;;;;;;;;16.60;1.00;;;;;;5095003;28;19934;-59
2021/07/15 07:39:02;;;;;;;;;;;16.70;1.00;;;;;;5094305;28;20357;-62
2021/07/15 07:41:28;;;;;;;;;;;16.80;1.00;;;;;;5093795;28;19912;-62
2021/07/15 07:43:53;;;;;;;;;;;17.00;1.00;;;;;;5095200;28;20392;-62
2021/07/15 07:46:19;;;;;;;;;;;17.10;1.00;;;;;;5094708;28;19916;-62
2021/07/15 07:48:44;;;;;;;;;;;17.20;1.00;;;;;;5075488;28;19909;-61
2021/07/15 07:51:10;;;;;;;;;;;17.50;1.00;;;;;;5094563;28;19912;-62
2021/07/15 07:53:36;;;;;;;;;;;17.50;1.00;;;;;;5095266;28;19908;-62
2021/07/15 07:56:01;;;;;;;;;;;17.50;1.00;;;;;;5094581;28;19914;-60
2021/07/15 07:58:26;;;;;;;;;;;17.60;1.00;;;;;;5093353;28;19916;-60
2021/07/15 08:00:52;;;;;;;;;;;17.40;1.00;;;;;;5076670;28;19919;-62
2021/07/15 08:03:18;;;;;;;;;;;17.30;1.00;;;;;;5093843;28;19981;-62
2021/07/15 08:05:45;;;;;;;;;;;17.10;1.00;;;;;;5095400;28;20022;-63
2021/07/15 08:08:10;;;;;;;;;;;17.40;1.00;;;;;;5093648;28;19969;-63
2021/07/15 08:10:36;;;;;;;;;;;17.40;1.00;;;;;;5091275;28;20286;-62
2021/07/15 08:13:02;;;;;;;;;;;17.60;1.00;;;;;;5090857;28;20428;-63
2021/07/15 08:15:27;;;;;;;;;;;17.90;1.00;;;;;;5091974;28;20221;-63
2021/07/15 08:17:53;;;;;;;;;;;18.00;1.00;;;;;;5091293;28;19916;-63
2021/07/15 08:20:18;;;;;;;;;;;18.30;1.00;;;;;;5090692;28;19908;-63
2021/07/15 08:22:44;;;;;;;;;;;18.40;1.00;;;;;;5091735;28;19912;-62
2021/07/15 08:25:10;;;;;;;;;;;18.70;1.00;;;;;;5091423;28;19920;-63
2021/07/15 08:27:36;;;;;;;;;;;19.00;99.90;;;;;;5089936;28;19912;-63
2021/07/15 08:30:02;;;;;;;;;;;19.30;99.90;;;;;;5091772;28;20325;-63
2021/07/15 08:32:28;;;;;;;;;;;19.10;99.90;;;;;;5091052;28;19916;-63
2021/07/15 08:34:53;;;;;;;;;;;18.90;99.90;;;;;;5090976;28;19931;-63
2021/07/15 08:37:19;;;;;;;;;;;19.30;84.80;;;;;;5090739;28;19908;-63
2021/07/15 08:39:44;;;;;;;;;;;19.90;99.90;;;;;;5090971;28;19955;-63
2021/07/15 08:42:10;;;;;;;;;;;20.40;99.90;;;;;;5081460;28;20412;-63
2021/07/15 08:44:39;;;;;;;;;;;20.50;1.00;;;;;;5090994;28;20260;-63
2021/07/15 08:47:05;;;;;;;;;;;20.60;99.90;;;;;;5090682;28;19912;-62
2021/07/15 08:49:30;;;;;;;;;;;20.90;40.40;;;;;;5090191;28;19913;-64
2021/07/15 08:51:56;;;;;;;;;;;21.10;1.00;;;;;;5090560;28;19908;-62
2021/07/15 08:54:30;;;;;;;;;;;21.10;1.00;;;;;;5090726;28;19912;-63
2021/07/15 08:56:56;;;;;;;;;;;21.20;99.90;;;;;;5089446;28;19908;-62
2021/07/15 08:59:22;;;;;;;;;;;21.10;99.90;;;;;;5090048;28;19908;-64
2021/07/15 09:01:50;;;;;;;;;;;21.20;99.90;;;;;;5090808;28;19916;-64
2021/07/15 09:04:18;;;;;;;;;;;21.50;99.90;;;;;;5090095;28;19919;-61
2021/07/15 09:06:44;;;;;;;;;;;21.90;1.00;;;;;;5090223;28;19920;-64
2021/07/15 09:09:10;;;;;;;;;;;22.20;99.90;;;;;;5089886;28;20007;-63
2021/07/15 09:11:39;;;;;;;;;;;22.20;99.90;;;;;;5089221;28;20300;-64
2021/07/15 09:14:31;;;;;;;;;;;22.30;99.90;;;;;;5090415;28;20270;-64
2021/07/15 09:16:57;;;;;;;;;;;21.90;99.90;;;;;;5086980;28;19990;-64
2021/07/15 09:19:26;;;;;;;;;;;21.60;1.00;;;;;;5089264;28;19985;-63
2021/07/15 09:21:52;;;;;;;;;;;22.10;1.00;;;;;;5089900;28;19930;-63
2021/07/15 09:24:27;;;;;;;;;;;23.00;99.90;;;;;;5090141;28;20015;-63
2021/07/15 09:26:52;;;;;;;;;;;23.60;1.00;;;;;;5088905;28;20329;-63
2021/07/15 09:29:18;;;;;;;;;;;23.70;1.00;;;;;;5089624;28;19970;-63
2021/07/15 09:31:57;;;;;;;;;;;23.70;1.00;;;;;;5089899;28;19912;-62
2021/07/15 09:34:23;;;;;;;;;;;23.50;1.00;;;;;;5089908;28;19916;-63
2021/07/15 09:36:49;;;;;;;;;;;23.50;1.00;;;;;;5089386;28;19912;-63
2021/07/15 09:39:16;;;;;;;;;;;23.60;1.00;;;;;;5089169;28;20329;-63
2021/07/15 09:41:41;;;;;;;;;;;23.90;1.00;;;;;;5081702;28;19965;-63
2021/07/15 09:44:07;;;;;;;;;;;24.10;1.00;;;;;;5088949;28;19908;-62
2021/07/15 09:46:36;;;;;;;;;;;24.50;1.00;;;;;;5090149;28;19919;-61
2021/07/15 09:49:03;;;;;;;;;;;25.50;1.00;;;;;;5088965;28;19921;-63
2021/07/15 09:51:36;;;;;;;;;;;27.60;99.90;;;;;;5089506;28;19913;-62
2021/07/15 09:54:02;;;;;;;;;;;28.30;1.00;;;;;;5090185;28;19950;-61
2021/07/15 09:56:28;;;;;;;;;;;28.30;1.00;;;;;;5088597;28;20553;-64
2021/07/15 09:58:55;;;;;;;;;;;27.60;99.90;;;;;;5089326;28;20236;-61
2021/07/15 10:01:21;;;;;;;;;;;26.60;99.90;;;;;;5071757;28;20378;-64
2021/07/15 10:03:48;;;;;;;;;;;25.30;99.90;;;;;;5089426;28;19919;-61
2021/07/15 10:06:14;;;;;;;;;;;24.20;1.00;;;;;;5089103;28;19920;-63
2021/07/15 10:08:41;;;;;;;;;;;23.60;1.00;;;;;;5088867;28;19908;-64
2021/07/15 10:11:12;;;;;;;;;;;22.80;1.00;;;;;;5088913;28;19916;-62
2021/07/15 10:13:38;;;;;;;;;;;22.40;1.00;;;;;;5088978;28;20006;-63
2021/07/15 10:16:07;;;;;;;;;;;22.00;1.00;;;;;;5089365;28;20053;-63
2021/07/15 10:18:34;;;;;;;;;;;21.90;1.00;;;;;;5087806;28;20395;-63
2021/07/15 10:20:59;;;;;;;;;;;21.90;99.90;;;;;;5089037;28;19908;-63
2021/07/15 10:23:32;;;;;;;;;;;21.80;99.90;;;;;;5088957;28;19918;-62
2021/07/15 10:26:01;;;;;;;;;;;21.60;99.90;;;;;;5088993;28;19912;-63
2021/07/15 10:28:28;;;;;;;;;;;21.30;1.00;;;;;;5087462;28;19999;-62
2021/07/15 10:31:04;;;;;;;;;;;21.30;1.00;;;;;;5088492;28;20082;-62
2021/07/15 10:33:30;;;;;;;;;;;21.00;1.00;;;;;;5087693;28;20261;-63
2021/07/15 10:35:59;;;;;;;;;;;21.10;58.00;;;;;;5088962;28;19987;-63
2021/07/15 10:38:29;;;;;;;;;;;21.10;99.90;;;;;;5087894;28;19908;-63
2021/07/15 10:40:55;;;;;;;;;;;21.00;1.00;;;;;;5088022;28;19916;-63
2021/07/15 10:43:21;;;;;;;;;;;20.80;1.00;;;;;;5080118;28;19914;-63
2021/07/15 10:45:47;;;;;;;;;;;20.80;62.50;;;;;;5088698;28;19911;-63
2021/07/15 10:48:14;;;;;;;;;;;20.90;1.00;;;;;;5087492;28;20349;-63
2021/07/15 10:50:40;;;;;;;;;;;20.80;1.00;;;;;;5087955;28;19916;-63
2021/07/15 10:53:06;;;;;;;;;;;20.80;99.90;;;;;;5088092;28;20321;-62
2021/07/15 10:55:32;;;;;;;;;;;20.90;99.90;;;;;;5087524;28;20011;-63
2021/07/15 10:57:58;;;;;;;;;;;20.90;1.00;;;;;;5086963;28;20002;-63
2021/07/15 11:00:25;;;;;;;;;;;21.00;12.20;;;;;;5088357;28;19923;-63
2021/07/15 11:03:09;;;;;;;;;;;21.20;1.00;;;;;;5088411;28;20388;-63
2021/07/15 11:05:45;;;;;;;;;;;21.50;99.90;;;;;;5088191;28;20061;-63
2021/07/15 11:08:10;;;;;;;;;;;21.90;99.90;;;;;;5087695;28;19916;-63
2021/07/15 11:10:36;;;;;;;;;;;22.20;1.00;;;;;;5087387;28;19931;-63
2021/07/15 11:13:04;;;;;;;;;;;22.30;1.00;;;;;;5087533;28;19934;-63
2021/07/15 11:15:45;;;;;;;;;;;22.50;1.00;;;;;;5087925;28;19989;-62
2021/07/15 11:18:31;;;;;;;;;;;23.00;1.00;;;;;;5087815;28;19919;-63
2021/07/15 11:21:16;;;;;;;;;;;23.80;99.90;;;;;;5088136;28;19908;-64
2021/07/15 11:23:42;;;;;;;;;;;24.70;1.00;;;;;;5088012;28;20331;-63
2021/07/15 11:26:25;;;;;;;;;;;25.20;1.00;;;;;;5087562;28;19999;-63
2021/07/15 11:28:51;;;;;;;;;;;24.80;1.00;;;;;;5087517;28;19914;-63
2021/07/15 11:31:36;;;;;;;;;;;24.80;1.00;;;;;;5088060;28;19912;-64
2021/07/15 11:34:01;;;;;;;;;;;25.10;1.00;;;;;;5087998;28;19991;-63
2021/07/15 11:36:27;;;;;;;;;;;24.90;1.00;;;;;;5087995;28;20007;-61
2021/07/15 11:38:58;;;;;;;;;;;25.10;1.00;;;;;;5087136;28;19912;-62
2021/07/15 11:41:40;;;;;;;;;;;25.40;1.00;;;;;;5087045;28;19908;-61
2021/07/15 11:44:05;;;;;;;;;;;25.30;1.00;;;;;;5090237;28;19908;-62
2021/07/15 11:46:37;;;;;;;;;;;25.80;1.00;;;;;;5092052;28;19915;-62
2021/07/15 11:49:09;;;;;;;;;;;26.60;1.00;;;;;;5090370;28;19969;-62
2021/07/15 11:51:55;;;;;;;;;;;26.80;1.00;;;;;;5092154;28;20208;-60
2021/07/15 11:54:21;;;;;;;;;;;27.40;1.00;;;;;;5091097;28;19938;-61
2021/07/15 11:56:49;;;;;;;;;;;28.20;99.90;;;;;;5060622;28;20076;-61
2021/07/15 11:59:30;;;;;;;;;;;28.70;99.90;;;;;;5079307;28;19909;-61
2021/07/15 12:02:17;;;;;;;;;;;28.80;99.90;;;;;;5071631;28;20001;-62
2021/07/15 12:05:01;;;;;;;;;;;28.70;99.90;;;;;;5082638;28;20057;-61
2021/07/15 12:07:27;;;;;;;;;;;27.90;99.90;;;;;;5083023;28;19921;-60
2021/07/15 12:09:52;;;;;;;;;;;27.20;99.90;;;;;;5091260;28;19923;-62
2021/07/15 12:12:18;;;;;;;;;;;27.10;99.90;;;;;;5090096;28;20357;-64
2021/07/15 12:14:50;;;;;;;;;;;27.00;99.90;;;;;;5090560;28;19995;-62
2021/07/15 12:17:16;;;;;;;;;;;27.00;99.90;;;;;;5090164;28;20057;-62
2021/07/15 12:19:52;;;;;;;;;;;26.80;99.90;;;;;;5090169;28;19995;-62
2021/07/15 12:22:17;;;;;;;;;;;26.30;99.90;;;;;;5091054;28;19908;-64
2021/07/15 12:24:43;;;;;;;;;;;25.90;99.90;;;;;;5089634;28;19935;-64
2021/07/15 12:27:10;;;;;;;;;;;25.50;99.90;;;;;;5089380;28;20007;-63
2021/07/15 12:29:52;;;;;;;;;;;25.20;99.90;;;;;;5071185;28;20262;-64
2021/07/15 12:32:18;;;;;;;;;;;24.80;99.90;;;;;;5070433;28;20373;-63
2021/07/15 12:34:43;;;;;;;;;;;24.20;99.90;;;;;;5079017;28;20023;-64
2021/07/15 12:37:12;;;;;;;;;;;23.60;99.90;;;;;;5089569;28;20050;-63
2021/07/15 12:39:38;;;;;;;;;;;23.30;1.00;;;;;;5082405;28;19908;-63
2021/07/15 12:42:03;;;;;;;;;;;23.10;1.00;;;;;;5089178;28;19919;-63
2021/07/15 12:44:29;;;;;;;;;;;22.90;1.00;;;;;;5090813;28;19908;-62
2021/07/15 12:46:55;;;;;;;;;;;22.70;1.00;;;;;;5090890;28;20345;-63
2021/07/15 12:49:26;;;;;;;;;;;22.80;1.00;;;;;;5085347;28;19912;-63
2021/07/15 12:51:53;;;;;;;;;;;22.70;1.00;;;;;;5086338;28;19962;-63
2021/07/15 12:57:16;;;;;;;;;;;22.40;1.00;;;;;;5055193;28;20040;-63
2021/07/15 12:59:42;;;;;;;;;;;22.30;1.00;;;;;;5069973;28;19908;-64
2021/07/15 13:02:08;;;;;;;;;;;22.60;1.00;;;;;;5070242;28;20281;-63
2021/07/15 13:04:34;;;;;;;;;;;23.00;1.00;;;;;;5079737;28;19958;-63
2021/07/15 13:07:06;;;;;;;;;;;23.30;1.00;;;;;;5097213;28;19981;-63
2021/07/15 13:15:02;;;;;;;;;;;23.30;1.00;;;;;;5091711;28;20355;-65
2021/07/15 13:17:32;;;;;;;;;;;23.80;1.00;;;;;;5069295;28;20256;-63
2021/07/15 13:20:06;;;;;;;;;;;23.90;1.00;;;;;;5080355;28;19912;-62
2021/07/15 13:22:37;;;;;;;;;;;24.10;1.00;;;;;;5090093;28;19919;-63
2021/07/15 13:25:02;;;;;;;;;;;24.00;1.00;;;;;;5090485;28;20022;-64
2021/07/15 13:27:30;;;;;;;;;;;23.80;1.00;;;;;;5088383;28;20291;-62
2021/07/15 13:30:00;;;;;;;;;;;23.70;1.00;;;;;;5089743;28;20382;-64
2021/07/15 13:32:30;;;;;;;;;;;23.30;1.00;;;;;;5089557;28;19969;-64
2021/07/15 13:34:56;;;;;;;;;;;23.10;1.00;;;;;;5089857;28;19908;-64
2021/07/15 13:37:42;;;;;;;;;;;22.50;1.00;;;;;;5089946;28;19915;-63
2021/07/15 13:40:24;;;;;;;;;;;22.00;1.00;;;;;;5049460;28;19908;-63
2021/07/15 13:43:08;;;;;;;;;;;22.00;1.00;;;;;;5086873;28;19918;-63
2021/07/15 13:45:43;;;;;;;;;;;21.90;82.30;;;;;;5069988;28;19919;-63
2021/07/15 13:48:13;;;;;;;;;;;22.00;1.00;;;;;;5068003;28;19912;-64
2021/07/15 13:50:39;;;;;;;;;;;22.00;99.90;;;;;;5069433;28;20011;-63
2021/07/15 13:53:04;;;;;;;;;;;21.20;1.00;;;;;;5069293;28;20015;-63
2021/07/15 13:55:30;;;;;;;;;;;20.90;99.90;;;;;;5071382;28;19913;-63
2021/07/15 13:57:56;;;;;;;;;;;20.70;1.00;;;;;;5087954;28;19919;-62
2021/07/15 14:00:23;;;;;;;;;;;20.70;99.90;;;;;;5089170;28;19908;-63
2021/07/15 14:02:50;;;;;;;;;;;20.60;91.20;;;;;;5089334;28;19912;-63
2021/07/15 14:05:28;;;;;;;;;;;20.50;99.90;;;;;;5088697;28;19995;-63
2021/07/15 14:07:55;;;;;;;;;;;20.40;1.00;;;;;;5089088;28;20019;-63
2021/07/15 14:10:21;;;;;;;;;;;20.30;99.90;;;;;;5087095;28;19916;-63
2021/07/15 14:12:46;;;;;;;;;;;20.30;1.00;;;;;;5080141;28;19966;-62
2021/07/15 14:15:16;;;;;;;;;;;20.20;1.00;;;;;;5078172;28;19919;-62
2021/07/15 14:17:41;;;;;;;;;;;20.00;1.00;;;;;;5068253;28;19927;-61
2021/07/15 14:20:07;;;;;;;;;;;19.70;99.90;;;;;;5080109;28;19927;-63
2021/07/15 14:22:33;;;;;;;;;;;19.40;1.00;;;;;;5087175;28;20014;-63
2021/07/15 14:24:59;;;;;;;;;;;;;;;;;;5080024;28;19934;-63
2021/07/15 14:27:24;;;;;;;;;;;18.40;99.90;;;;;;5081019;28;20014;-61
2021/07/15 14:29:50;;;;;;;;;;;18.40;99.90;;;;;;5088529;28;19957;-62
2021/07/15 14:32:17;;;;;;;;;;;18.20;1.00;;;;;;5080868;28;20376;-61
2021/07/15 14:34:43;;;;;;;;;;;18.10;1.00;;;;;;5088170;28;19937;-62
2021/07/15 14:37:08;;;;;;;;;;;18.40;1.00;;;;;;5088696;28;19969;-62
2021/07/15 14:39:34;;;;;;;;;;;18.60;99.90;;;;;;5088432;28;20006;-63